Boston, Massachusetts
Traffic Map
Current Weather Conditions
Boston, Massachusetts
Few Clouds
Few Clouds
80°
Feels Like: 83°
Wind Chill: 80° Ceiling: Unl
Heat Index: 83° Visibility: 10mi
Dew Point: 68° Wind: 12mph
Humidity: 67% Direction: 290° (WNW)
Pressure: 29.9in Gusts: 0mph
Raw Report DataKBOS 160554Z 29010KT 10SM FEW150 FEW250 27/20 A2990 RMK AO2 SLP124 T02670200 10300 20267 50001
Traffic Incident Summary
Active as of:
Severity:
Category:
InformationThere was an issue retrieving the traffic information for this location. Please try a different location or try again shortly.
Advertisements